UHPP

Yelizovo Airport

Petropavlovsk-Kamchatsky, Russian Federation

UHPP 271300Z 36002MPS 0400 R34/1400 FG VV001 07/07 Q1001 R34L/CLRD70 NOSIG RMK QBB040 QFE747/0997

Observed Flight Rules
Jun-27 @ 13:00 UTC (47 minutes ago)
 
Low Instrument Flight Rules
Wind Visibility Clouds Conditions
360° at 4 knots 402 meters
  • Vertical visibility at 100' AGL
  • Fog
Temperatures Readings
Current 7°C / 45°F
Dewpoint 7°C / 45°F
Humidity 100%
Altimeter 29.56" Hg
Pressure 1001 hPa
Elevation 40
Observed Flight Rules
Jun-27 @ 13:00 UTC
(47 minutes ago)
 
LIFR
Wind Visibility
360° at 4 knots 402 meters
Clouds Conditions
  • Vertical visibility at 100' AGL
  • Fog
Temperature Dewpoint
7°C / 45°F 7°C / 45°F
Humidity Altimeter Pressure
100% 29.56" Hg 1001 hPa